createdAt,value
2018-09-10T00:02:20.955Z,101561.84
2018-09-10T00:04:50.387Z,101565.22
2018-09-10T00:07:19.805Z,101562.72
2018-09-10T00:09:49.671Z,101556.84
2018-09-10T00:12:19.099Z,101568.17
2018-09-10T00:14:48.839Z,101566.91
2018-09-10T00:17:18.305Z,101571.09
2018-09-10T00:19:47.782Z,101568.13
2018-09-10T00:22:17.216Z,101572.34
2018-09-10T00:24:46.690Z,101576.51
2018-09-10T00:27:16.159Z,101569.81
2018-09-10T00:29:45.658Z,101570.64
2018-09-10T00:32:15.174Z,101571.50
2018-09-10T00:34:44.631Z,101567.70
2018-09-10T00:37:14.111Z,101569.39
2018-09-10T00:39:43.567Z,101568.97
2018-09-10T00:42:13.174Z,101573.16
2018-09-10T00:44:42.626Z,101572.33
2018-09-10T00:47:12.113Z,101573.63
2018-09-10T00:49:41.549Z,101569.00
2018-09-10T00:52:11.112Z,101564.39
2018-09-10T00:54:40.614Z,101563.55
2018-09-10T00:57:10.090Z,101552.64
2018-09-10T00:59:39.547Z,101554.33
2018-09-10T01:02:09.074Z,101550.95
2018-09-10T01:04:38.555Z,101553.07
2018-09-10T01:07:08.122Z,101549.28
2018-09-10T01:09:37.613Z,101548.03
2018-09-10T01:12:07.179Z,101548.87
2018-09-10T01:14:36.667Z,101544.68
2018-09-10T01:17:06.483Z,101545.91
2018-09-10T01:19:35.978Z,101545.50
2018-09-10T01:22:05.479Z,101539.62
2018-09-10T01:24:34.901Z,101545.06
2018-09-10T01:27:04.843Z,101542.14
2018-09-10T01:29:34.279Z,101540.48
2018-09-10T01:32:03.761Z,101544.25
2018-09-10T01:34:38.592Z,101535.45
2018-09-10T01:37:08.050Z,101538.81
2018-09-10T01:39:37.515Z,101526.66
2018-09-10T01:42:07.368Z,101526.65
2018-09-10T01:44:36.841Z,101530.85
2018-09-10T01:47:06.562Z,101529.58
2018-09-10T01:49:35.997Z,101531.67
2018-09-10T01:52:05.460Z,101526.66
2018-09-10T01:54:34.901Z,101526.64
2018-09-10T01:57:04.338Z,101536.69
2018-09-10T01:59:34.083Z,101530.00
2018-09-10T02:02:03.560Z,101529.59
2018-09-10T02:04:33.045Z,101531.25
2018-09-10T02:07:02.574Z,101532.92
2018-09-10T02:09:32.017Z,101534.20
2018-09-10T02:12:01.499Z,101532.93
2018-09-10T02:14:30.969Z,101533.34
2018-09-10T02:17:00.486Z,101525.39
2018-09-10T02:19:29.912Z,101522.03
2018-09-10T02:21:59.448Z,101524.11
2018-09-10T02:24:28.894Z,101522.44
2018-09-10T02:26:58.438Z,101525.38
2018-09-10T02:29:27.922Z,101520.38
2018-09-10T02:31:57.373Z,101519.09
2018-09-10T02:34:26.824Z,101516.98
2018-09-10T02:36:56.335Z,101508.17
2018-09-10T02:39:25.766Z,101506.50
2018-09-10T02:41:55.572Z,101503.16
2018-09-10T02:44:25.052Z,101498.95
2018-09-10T02:46:54.528Z,101494.34
2018-09-10T02:49:24.032Z,101501.89
2018-09-10T02:51:53.515Z,101499.36
2018-09-10T02:54:22.968Z,101498.96
2018-09-10T02:56:52.409Z,101499.36
2018-09-10T02:59:22.125Z,101497.27
2018-09-10T03:01:51.573Z,101498.11
2018-09-10T03:04:21.033Z,101492.25
2018-09-10T03:06:50.859Z,101491.84
2018-09-10T03:09:20.313Z,101488.44
2018-09-10T03:11:49.840Z,101481.34
2018-09-10T03:14:19.335Z,101486.38
2018-09-10T03:16:48.800Z,101477.56
2018-09-10T03:19:18.344Z,101484.28
2018-09-10T03:21:47.882Z,101481.77
2018-09-10T03:24:17.395Z,101483.00
2018-09-10T03:26:46.824Z,101485.95
2018-09-10T03:29:16.296Z,101480.09
2018-09-10T03:31:45.793Z,101480.89
2018-09-10T03:34:15.338Z,101479.62
2018-09-10T03:36:44.827Z,101481.31
2018-09-10T03:41:42.905Z,101476.70
2018-09-10T03:44:12.396Z,101477.97
2018-09-10T03:46:41.832Z,101470.84
2018-09-10T03:49:11.290Z,101467.91
2018-09-10T03:51:40.820Z,101473.77
2018-09-10T03:54:10.311Z,101477.13
2018-09-10T03:56:39.778Z,101473.77
2018-09-10T03:59:09.465Z,101471.67
2018-09-10T04:01:38.973Z,101474.61
2018-09-10T04:04:08.472Z,101472.94
2018-09-10T04:06:37.971Z,101470.42
2018-09-10T04:09:08.577Z,101465.82
2018-09-10T04:11:38.165Z,101461.63
2018-09-10T04:14:07.638Z,101467.52
2018-09-10T04:16:37.252Z,101464.63
2018-09-10T04:19:06.882Z,101460.39
2018-09-10T04:21:36.486Z,101459.16
2018-09-10T04:24:06.040Z,101464.17
2018-09-10T04:26:35.650Z,101464.61
2018-09-10T04:29:05.485Z,101467.13
2018-09-10T04:31:35.009Z,101466.69
2018-09-10T04:34:04.716Z,101460.40
2018-09-10T04:36:34.243Z,101465.41
2018-09-10T04:39:05.068Z,101464.56
2018-09-10T04:41:41.742Z,101472.97
2018-09-10T04:44:11.349Z,101472.11
2018-09-10T04:46:41.070Z,101480.91
2018-09-10T04:49:10.715Z,101483.84
2018-09-10T04:51:40.282Z,101478.38
2018-09-10T04:54:09.902Z,101474.20
2018-09-10T04:56:39.512Z,101476.70
2018-09-10T04:59:08.986Z,101472.09
2018-09-10T05:01:38.487Z,101471.25
2018-09-10T05:04:08.122Z,101473.33
2018-09-10T05:06:37.624Z,101472.92
2018-09-10T05:09:08.900Z,101472.48
2018-09-10T05:11:38.494Z,101480.03
2018-09-10T05:14:08.182Z,101482.98
2018-09-10T05:16:37.762Z,101495.55
2018-09-10T05:19:07.303Z,101506.84
2018-09-10T05:21:36.856Z,101501.80
2018-09-10T05:24:06.371Z,101500.93
2018-09-10T05:26:35.865Z,101497.97
2018-09-10T05:29:05.444Z,101491.25
2018-09-10T05:31:35.013Z,101495.39
2018-09-10T05:34:04.646Z,101494.12
2018-09-10T05:36:34.122Z,101495.77
2018-09-10T05:39:04.393Z,101491.11
2018-09-10T05:41:33.846Z,101496.13
2018-09-10T05:44:03.530Z,101495.72
2018-09-10T05:46:33.052Z,101498.24
2018-09-10T05:49:02.644Z,101499.05
2018-09-10T05:51:32.106Z,101501.53
2018-09-10T05:54:02.251Z,101502.79
2018-09-10T05:56:31.950Z,101501.52
2018-09-10T05:59:01.420Z,101495.19
2018-09-10T06:01:31.056Z,101505.63
2018-09-10T06:04:00.522Z,101507.28
2018-09-10T06:06:30.114Z,101504.31
2018-09-10T06:08:59.559Z,101506.76
2018-09-10T06:11:29.067Z,101510.87
2018-09-10T06:13:58.542Z,101507.02
2018-09-10T06:16:28.075Z,101503.18
2018-09-10T06:18:57.640Z,101504.33
2018-09-10T06:21:27.236Z,101516.47
2018-09-10T06:23:56.957Z,101513.11
2018-09-10T06:26:26.458Z,101513.53
2018-09-10T06:28:56.393Z,101510.16
2018-09-10T06:31:26.340Z,101518.60
2018-09-10T06:33:56.787Z,101523.22
2018-09-10T06:36:26.993Z,101521.96
2018-09-10T06:38:56.629Z,101520.28
2018-09-10T06:41:26.063Z,101510.69
2018-09-10T06:43:55.642Z,101503.99
2018-09-10T06:46:25.234Z,101507.80
2018-09-10T06:48:54.745Z,101498.97
2018-09-10T06:51:24.250Z,101489.34
2018-09-10T06:53:53.781Z,101480.52
2018-09-10T06:56:23.722Z,101481.34
2018-09-10T06:58:53.322Z,101491.88
2018-09-10T07:01:22.819Z,101496.53
2018-09-10T07:03:52.285Z,101496.88
2018-09-10T07:06:21.816Z,101497.72
2018-09-10T07:08:51.401Z,101488.52
2018-09-10T07:11:20.951Z,101497.34
2018-09-10T07:13:50.595Z,101490.17
2018-09-10T07:16:20.157Z,101491.86
2018-09-10T07:18:49.756Z,101486.38
2018-09-10T07:21:19.247Z,101493.45
2018-09-10T07:23:48.800Z,101491.30
2018-09-10T07:26:18.309Z,101493.38
2018-09-10T07:28:47.721Z,101496.98
2018-09-10T07:31:17.400Z,101486.93
2018-09-10T07:33:47.208Z,101492.33
2018-09-10T07:36:16.698Z,101489.30
2018-09-10T07:38:46.321Z,101495.22
2018-09-10T07:41:15.823Z,101501.81
2018-09-10T07:43:45.406Z,101502.04
2018-09-10T07:46:14.980Z,101507.61
2018-09-10T07:48:44.432Z,101504.11
2018-09-10T07:51:13.907Z,101505.78
2018-09-10T07:53:43.654Z,101502.84
2018-09-10T07:56:13.125Z,101505.02
2018-09-10T07:58:42.796Z,101504.63
2018-09-10T08:01:12.372Z,101505.78
2018-09-10T08:03:42.053Z,101506.45
2018-09-10T08:06:11.593Z,101503.47
2018-09-10T08:08:41.184Z,101513.42
2018-09-10T08:11:10.693Z,101513.88
2018-09-10T08:13:40.205Z,101510.78
2018-09-10T08:16:09.766Z,101515.64
2018-09-10T08:18:39.309Z,101515.18
2018-09-10T08:21:09.056Z,101513.80
2018-09-10T08:23:38.584Z,101521.77
2018-09-10T08:26:08.131Z,101513.15
2018-09-10T08:28:37.716Z,101526.95
2018-09-10T08:31:07.162Z,101528.17
2018-09-10T08:33:36.689Z,101524.77
2018-09-10T08:36:06.458Z,101527.75
2018-09-10T08:38:36.014Z,101531.67
2018-09-10T08:41:05.585Z,101524.00
2018-09-10T08:43:35.003Z,101520.91
2018-09-10T08:46:04.642Z,101515.56
2018-09-10T08:48:34.096Z,101513.64
2018-09-10T08:51:03.526Z,101523.06
2018-09-10T08:53:33.090Z,101526.58
2018-09-10T08:56:03.240Z,101531.73
2018-09-10T08:58:32.503Z,101529.20
2018-09-10T09:01:02.446Z,101526.86
2018-09-10T09:03:32.064Z,101534.72
2018-09-10T09:06:01.646Z,101535.32
2018-09-10T09:08:31.207Z,101541.55
2018-09-10T09:11:00.737Z,101542.48
2018-09-10T09:13:30.197Z,101546.53
2018-09-10T09:15:59.721Z,101557.61
2018-09-10T09:18:29.245Z,101555.02
2018-09-10T09:20:58.690Z,101559.36
2018-09-10T09:23:28.409Z,101543.75
2018-09-10T09:25:57.851Z,101538.31
2018-09-10T09:28:27.341Z,101545.58
2018-09-10T09:30:57.110Z,101536.87
2018-09-10T09:33:26.765Z,101533.34
2018-09-10T09:36:01.454Z,101536.66
2018-09-10T09:38:36.215Z,101532.13
2018-09-10T09:41:11.013Z,101536.85
2018-09-10T09:43:45.662Z,101541.61
2018-09-10T09:46:17.496Z,101530.20
2018-09-10T09:48:46.952Z,101533.57
2018-09-10T09:51:16.498Z,101538.31
2018-09-10T09:53:45.962Z,101538.31
2018-09-10T09:56:15.663Z,101544.88
2018-09-10T09:58:45.247Z,101543.25
2018-09-10T10:01:20.150Z,101551.09
2018-09-10T10:03:55.312Z,101558.66
2018-09-10T10:06:25.884Z,101569.59
2018-09-10T10:08:55.384Z,101567.23
2018-09-10T10:11:25.043Z,101560.04
2018-09-10T10:13:54.569Z,101555.27
2018-09-10T10:16:24.277Z,101559.65
2018-09-10T10:18:53.820Z,101559.58
2018-09-10T10:21:23.420Z,101553.36
2018-09-10T10:23:53.074Z,101555.27
2018-09-10T10:26:22.661Z,101555.03
2018-09-10T10:28:52.205Z,101565.55
2018-09-10T10:31:21.897Z,101555.34
2018-09-10T10:33:51.845Z,101556.48
2018-09-10T10:36:21.592Z,101548.30
2018-09-10T10:38:51.284Z,101543.77
2018-09-10T10:41:21.325Z,101544.66
2018-09-10T10:43:50.852Z,101540.85
2018-09-10T10:46:20.345Z,101547.05
2018-09-10T10:48:49.866Z,101543.85
2018-09-10T10:51:19.338Z,101530.58
2018-09-10T10:53:48.925Z,101532.22
2018-09-10T10:56:18.394Z,101529.27
2018-09-10T10:58:47.953Z,101530.41
2018-09-10T11:01:17.646Z,101529.84
2018-09-10T11:03:47.199Z,101536.01
2018-09-10T11:06:16.877Z,101543.20
2018-09-10T11:08:46.445Z,101539.14
2018-09-10T11:11:16.046Z,101545.28
2018-09-10T11:13:45.662Z,101546.66
2018-09-10T11:16:15.151Z,101544.41
2018-09-10T11:18:44.814Z,101545.53
2018-09-10T11:21:14.356Z,101543.11
2018-09-10T11:23:43.929Z,101541.13
2018-09-10T11:26:13.448Z,101534.34
2018-09-10T11:28:43.114Z,101539.84
2018-09-10T11:31:12.587Z,101530.19
2018-09-10T11:33:42.083Z,101540.22
2018-09-10T11:36:11.760Z,101540.45
2018-09-10T11:38:41.242Z,101544.29
2018-09-10T11:41:10.844Z,101547.82
2018-09-10T11:43:40.573Z,101533.22
2018-09-10T11:46:10.031Z,101535.11
2018-09-10T11:48:39.473Z,101532.83
2018-09-10T11:51:09.207Z,101541.08
2018-09-10T11:53:38.674Z,101537.95
2018-09-10T11:56:08.815Z,101529.00
2018-09-10T11:58:38.401Z,101531.88
2018-09-10T12:01:08.052Z,101538.62
2018-09-10T12:03:37.605Z,101536.83
2018-09-10T12:06:07.448Z,101555.61
2018-09-10T12:08:37.173Z,101568.67
2018-09-10T12:11:07.172Z,101562.39
2018-09-10T12:13:36.918Z,101565.60
2018-09-10T12:16:06.809Z,101562.47
2018-09-10T12:18:36.412Z,101566.69
2018-09-10T12:21:06.210Z,101559.13
2018-09-10T12:23:36.254Z,101574.75
2018-09-10T12:26:05.728Z,101572.86
2018-09-10T12:28:35.296Z,101571.53
2018-09-10T12:31:04.903Z,101585.02
2018-09-10T12:33:34.416Z,101588.61
2018-09-10T12:36:06.097Z,101593.67
2018-09-10T12:38:35.605Z,101598.16
2018-09-10T12:41:05.225Z,101597.55
2018-09-10T12:43:34.884Z,101601.58
2018-09-10T12:46:04.504Z,101605.83
2018-09-10T12:48:34.018Z,101622.61
2018-09-10T12:51:04.093Z,101614.54
2018-09-10T12:53:33.591Z,101630.88
2018-09-10T12:56:03.259Z,101620.17
2018-09-10T12:58:32.745Z,101616.89
2018-09-10T13:01:02.281Z,101610.88
2018-09-10T13:03:31.840Z,101613.24
2018-09-10T13:06:01.390Z,101613.30
2018-09-10T13:08:30.917Z,101603.42
2018-09-10T13:11:00.441Z,101611.58
2018-09-10T13:13:29.967Z,101613.44
2018-09-10T13:16:00.046Z,101599.80
2018-09-10T13:18:29.552Z,101592.65
2018-09-10T13:20:59.067Z,101591.87
2018-09-10T13:23:28.666Z,101598.22
2018-09-10T13:25:58.206Z,101597.78
2018-09-10T13:28:27.842Z,101591.94
2018-09-10T13:30:57.420Z,101576.94
2018-09-10T13:33:27.144Z,101581.27
2018-09-10T13:35:56.655Z,101582.32
2018-09-10T13:38:26.138Z,101585.56
2018-09-10T13:40:55.681Z,101596.70
2018-09-10T13:43:25.206Z,101610.97
2018-09-10T13:45:54.784Z,101620.61
2018-09-10T13:48:24.398Z,101617.43
2018-09-10T13:50:53.835Z,101614.43
2018-09-10T13:53:23.304Z,101602.64
2018-09-10T13:55:52.795Z,101607.64
2018-09-10T13:58:22.330Z,101625.09
2018-09-10T14:00:51.903Z,101636.81
2018-09-10T14:03:21.382Z,101638.48
2018-09-10T14:05:50.911Z,101631.40
2018-09-10T14:08:20.443Z,101625.28
2018-09-10T14:10:50.093Z,101626.19
2018-09-10T14:13:19.616Z,101630.92
2018-09-10T14:15:49.285Z,101627.52
2018-09-10T14:18:18.871Z,101629.00
2018-09-10T14:20:48.200Z,101626.66
2018-09-10T14:23:17.868Z,101627.50
2018-09-10T14:25:47.577Z,101628.91
2018-09-10T14:28:17.171Z,101624.37
2018-09-10T14:30:46.767Z,101624.56
2018-09-10T14:33:16.272Z,101624.44
2018-09-10T14:35:45.730Z,101625.41
2018-09-10T14:38:15.319Z,101627.20
2018-09-10T14:40:44.853Z,101640.20
2018-09-10T14:43:14.991Z,101641.16
2018-09-10T14:45:44.757Z,101652.36
2018-09-10T14:48:14.398Z,101663.69
2018-09-10T14:50:43.849Z,101656.10
2018-09-10T14:53:13.311Z,101661.27
2018-09-10T14:55:42.869Z,101668.39
2018-09-10T14:58:12.447Z,101664.80
2018-09-10T15:00:42.191Z,101658.25
2018-09-10T15:03:11.687Z,101660.95
2018-09-10T15:05:41.149Z,101664.75
2018-09-10T15:08:10.835Z,101660.41
2018-09-10T15:10:40.439Z,101661.47
2018-09-10T15:13:09.925Z,101666.97
2018-09-10T15:15:39.436Z,101664.27
2018-09-10T15:18:08.951Z,101663.81
2018-09-10T15:20:38.387Z,101664.13
2018-09-10T15:23:07.880Z,101665.06
2018-09-10T15:25:37.382Z,101658.62
2018-09-10T15:28:07.009Z,101666.76
2018-09-10T15:30:36.738Z,101663.86
2018-09-10T15:33:06.577Z,101665.18
2018-09-10T15:35:36.436Z,101660.53
2018-09-10T15:38:06.044Z,101662.65
2018-09-10T15:40:35.696Z,101657.41
2018-09-10T15:43:05.481Z,101656.77
2018-09-10T15:45:34.941Z,101658.08
2018-09-10T15:48:04.462Z,101664.18
2018-09-10T15:50:33.992Z,101665.12
2018-09-10T15:53:03.564Z,101676.98
2018-09-10T15:55:33.136Z,101684.94
2018-09-10T15:58:02.773Z,101690.90
2018-09-10T16:00:32.562Z,101694.27
2018-09-10T16:03:02.936Z,101679.52
2018-09-10T16:05:32.736Z,101675.89
2018-09-10T16:08:04.022Z,101681.71
2018-09-10T16:10:34.389Z,101685.50
2018-09-10T16:13:04.343Z,101692.80
2018-09-10T16:15:35.607Z,101691.92
2018-09-10T16:18:05.353Z,101698.63
2018-09-10T16:20:35.655Z,101697.02
2018-09-10T16:23:06.428Z,101704.23
2018-09-10T16:25:36.778Z,101701.78
2018-09-10T16:28:08.936Z,101699.41
2018-09-10T16:30:39.145Z,101693.47
2018-09-10T16:33:09.483Z,101682.97
2018-09-10T16:35:40.998Z,101702.06
2018-09-10T16:38:10.507Z,101708.07
2018-09-10T16:40:42.045Z,101700.88
2018-09-10T16:43:11.642Z,101689.95
2018-09-10T16:45:41.417Z,101688.77
2018-09-10T16:48:11.880Z,101686.69
2018-09-10T16:50:42.367Z,101690.91
2018-09-10T16:53:12.255Z,101690.91
2018-09-10T16:55:42.006Z,101698.11
2018-09-10T16:58:53.849Z,101702.81
2018-09-10T17:01:24.101Z,101686.03
2018-09-10T17:03:53.760Z,101684.27
2018-09-10T17:06:26.649Z,101674.97
2018-09-10T17:08:57.916Z,101681.78
2018-09-10T17:11:27.571Z,101673.39
2018-09-10T17:13:57.942Z,101662.44
2018-09-10T17:16:28.455Z,101666.61
2018-09-10T17:18:59.556Z,101680.09
2018-09-10T17:21:29.798Z,101675.53
2018-09-10T17:24:00.485Z,101681.89
2018-09-10T17:26:31.656Z,101669.70
2018-09-10T17:29:02.942Z,101665.95
2018-09-10T17:31:32.444Z,101672.23
2018-09-10T17:34:03.804Z,101678.20
2018-09-10T17:36:34.312Z,101679.11
2018-09-10T17:39:04.111Z,101671.56
2018-09-10T17:41:35.734Z,101659.77
2018-09-10T17:44:05.965Z,101673.70
2018-09-10T17:46:35.892Z,101676.73
2018-09-10T17:49:06.737Z,101671.75
2018-09-10T17:51:36.381Z,101686.18
2018-09-10T17:54:06.300Z,101688.70
2018-09-10T17:56:36.436Z,101690.42
2018-09-10T17:59:07.093Z,101691.31
2018-09-10T18:01:37.701Z,101695.07
2018-09-10T18:04:07.523Z,101704.78
2018-09-10T18:06:37.551Z,101710.64
2018-09-10T18:09:12.305Z,101709.44
2018-09-10T18:12:15.514Z,101708.98
2018-09-10T18:14:45.275Z,101709.85
2018-09-10T18:17:16.015Z,101711.59
2018-09-10T18:19:46.468Z,101718.31
2018-09-10T18:22:17.113Z,101712.03
2018-09-10T18:24:46.825Z,101713.74
2018-09-10T18:27:17.726Z,101717.90
2018-09-10T18:29:48.881Z,101726.38
2018-09-10T18:32:19.385Z,101730.62
2018-09-10T18:34:48.970Z,101727.67
2018-09-10T18:37:23.744Z,101727.27
2018-09-10T18:39:55.557Z,101726.02
2018-09-10T18:42:28.673Z,101712.20
2018-09-10T18:44:59.428Z,101707.17
2018-09-10T18:47:29.208Z,101702.59
2018-09-10T18:50:00.089Z,101708.92
2018-09-10T18:52:30.290Z,101714.38
2018-09-10T18:55:00.836Z,101717.31
2018-09-10T18:57:30.513Z,101717.75
2018-09-10T19:00:01.488Z,101711.45
2018-09-10T19:02:31.086Z,101712.33
2018-09-10T19:05:05.374Z,101709.00
2018-09-10T19:07:36.382Z,101706.05
2018-09-10T19:10:07.288Z,101714.87
2018-09-10T19:12:36.781Z,101716.59
2018-09-10T19:15:07.929Z,101705.66
2018-09-10T19:17:37.545Z,101708.20
2018-09-10T19:20:07.154Z,101702.73
2018-09-10T19:22:39.187Z,101706.14
2018-09-10T19:25:09.586Z,101710.78
2018-09-10T19:27:39.078Z,101704.91
2018-09-10T19:30:10.488Z,101712.06
2018-09-10T19:32:41.477Z,101710.81
2018-09-10T19:35:12.028Z,101717.14
2018-09-10T19:37:41.507Z,101718.00
2018-09-10T19:40:12.124Z,101719.68
2018-09-10T19:42:41.743Z,101722.18
2018-09-10T19:45:11.314Z,101717.16
2018-09-10T19:47:40.872Z,101703.77
2018-09-10T19:50:10.481Z,101704.61
2018-09-10T19:52:42.201Z,101698.77
2018-09-10T19:55:11.671Z,101700.91
2018-09-10T19:57:41.401Z,101693.36
2018-09-10T20:00:10.903Z,101685.84
2018-09-10T20:02:40.394Z,101686.29
2018-09-10T20:05:10.810Z,101679.12
2018-09-10T20:07:40.378Z,101680.47
2018-09-10T20:10:09.916Z,101684.27
2018-09-10T20:12:40.070Z,101684.70
2018-09-10T20:15:10.068Z,101684.28
2018-09-10T20:17:39.552Z,101688.91
2018-09-10T20:20:10.223Z,101698.53
2018-09-10T20:22:40.395Z,101706.93
2018-09-10T20:25:10.851Z,101717.80
2018-09-10T20:27:41.480Z,101715.73
2018-09-10T20:30:11.993Z,101710.27
2018-09-10T20:32:42.540Z,101701.05
2018-09-10T20:35:12.179Z,101708.61
2018-09-10T20:37:41.697Z,101713.64
2018-09-10T20:43:09.553Z,101696.03
2018-09-10T20:45:40.185Z,101690.15
2018-09-10T20:48:09.691Z,101687.23
2018-09-10T20:50:39.603Z,101693.11
2018-09-10T20:53:09.486Z,101680.09
2018-09-10T20:55:39.832Z,101680.51
2018-09-10T20:58:09.976Z,101671.72
2018-09-10T21:00:40.158Z,101672.97
2018-09-10T21:03:09.698Z,101681.76
2018-09-10T21:05:39.211Z,101678.38
2018-09-10T21:08:11.164Z,101681.30
2018-09-10T21:10:41.194Z,101688.88
2018-09-10T21:13:10.774Z,101696.03
2018-09-10T21:15:40.326Z,101701.47
2018-09-10T21:18:09.920Z,101698.55
2018-09-10T21:20:39.456Z,101689.73
2018-09-10T21:23:09.966Z,101661.66
2018-09-10T21:25:40.092Z,101659.11
2018-09-10T21:28:10.523Z,101674.64
2018-09-10T21:30:41.477Z,101672.52
2018-09-10T21:33:12.202Z,101679.22
2018-09-10T21:35:41.636Z,101683.84
2018-09-10T21:38:11.160Z,101687.21
2018-09-10T21:40:41.605Z,101696.00
2018-09-10T21:43:11.880Z,101696.00
2018-09-10T21:45:41.401Z,101696.45
2018-09-10T21:48:11.812Z,101685.09
2018-09-10T21:50:42.112Z,101690.56
2018-09-10T21:53:11.629Z,101680.06
2018-09-10T21:55:41.234Z,101670.81
2018-09-10T21:58:11.196Z,101673.34
2018-09-10T22:00:46.527Z,101666.19
2018-09-10T22:03:16.043Z,101667.48
2018-09-10T22:05:46.107Z,101665.77
2018-09-10T22:08:16.047Z,101667.05
2018-09-10T22:10:47.315Z,101672.50
2018-09-10T22:13:16.847Z,101662.84
2018-09-10T22:15:46.379Z,101658.62
2018-09-10T22:18:33.707Z,101653.61
2018-09-10T22:21:06.304Z,101647.34
2018-09-10T22:23:35.851Z,101658.23
2018-09-10T22:26:05.474Z,101651.94
2018-09-10T22:28:35.434Z,101650.67
2018-09-10T22:31:06.055Z,101656.56
2018-09-10T22:33:35.566Z,101647.73
2018-09-10T22:36:06.071Z,101646.47
2018-09-10T22:38:35.719Z,101647.73
2018-09-10T22:41:06.315Z,101657.81
2018-09-10T22:43:36.150Z,101662.00
2018-09-10T22:46:08.767Z,101665.80
2018-09-10T22:48:39.266Z,101672.52
2018-09-10T22:51:09.291Z,101666.22
2018-09-10T22:53:38.795Z,101675.44
2018-09-10T22:56:09.704Z,101658.66
2018-09-10T22:58:39.339Z,101653.63
2018-09-10T23:01:08.901Z,101646.91
2018-09-10T23:03:39.323Z,101640.63
2018-09-10T23:06:09.169Z,101646.48
2018-09-10T23:08:38.671Z,101641.88
2018-09-10T23:11:09.063Z,101648.61
2018-09-10T23:13:38.982Z,101642.73
2018-09-10T23:16:09.631Z,101640.63
2018-09-10T23:18:40.295Z,101629.73
2018-09-10T23:21:09.783Z,101637.70
2018-09-10T23:23:39.642Z,101632.67
2018-09-10T23:26:11.707Z,101638.11
2018-09-10T23:28:41.349Z,101630.13
2018-09-10T23:34:08.633Z,101636.02
2018-09-10T23:36:40.577Z,101643.14
2018-09-10T23:39:11.709Z,101640.19
2018-09-10T23:41:41.233Z,101640.60
2018-09-10T23:44:11.161Z,101640.20
2018-09-10T23:46:40.740Z,101627.59
2018-09-10T23:49:12.194Z,101629.73
2018-09-10T23:51:42.592Z,101626.37
2018-09-10T23:54:12.098Z,101615.45
2018-09-10T23:56:41.621Z,101611.27
2018-09-10T23:59:11.071Z,101607.06
